Time;durP1;ratioP1;P1;durP2;ratioP2;P2;SDS_P1;SDS_P2;PMS_P1;PMS_P2;Temp;Humidity;BMP_temperature;BMP_pressure;BME280_temperature;BME280_humidity;BME280_pressure;Samples;Min_cycle;Max_cycle;Signal;HPM_P1;HPM_P2
2022/03/26 00:00:14;;;;;;;7.88;7.18;;;;;;;;;;5071009;28;20028;-56
2022/03/26 00:02:39;;;;;;;9.07;6.85;;;;;;;;;;5071713;28;20111;-56
2022/03/26 00:05:05;;;;;;;8.07;7.22;;;;;;;;;;5072249;28;20115;-55
2022/03/26 00:07:30;;;;;;;10.70;7.90;;;;;;;;;;5072706;28;20192;-57
2022/03/26 00:09:56;;;;;;;16.52;8.52;;;;;;;;;;5069266;28;20028;-54
2022/03/26 00:12:21;;;;;;;9.52;5.82;;;;;;;;;;5070644;28;20065;-56
2022/03/26 00:14:47;;;;;;;9.73;7.90;;;;;;;;;;5070338;28;20036;-56
2022/03/26 00:17:12;;;;;;;7.85;5.97;;;;;;;;;;5071735;28;20075;-57
2022/03/26 00:19:37;;;;;;;9.93;8.20;;;;;;;;;;5074032;28;20060;-56
2022/03/26 00:22:03;;;;;;;14.88;8.38;;;;;;;;;;5058865;28;20091;-54
2022/03/26 00:24:29;;;;;;;9.68;7.15;;;;;;;;;;5072910;28;20043;-56
2022/03/26 00:26:54;;;;;;;10.00;7.97;;;;;;;;;;5076724;28;20127;-55
2022/03/26 00:29:20;;;;;;;6.35;5.47;;;;;;;;;;5075239;28;20039;-54
2022/03/26 00:31:46;;;;;;;6.97;6.30;;;;;;;;;;5072891;28;20052;-55
2022/03/26 00:34:11;;;;;;;7.47;6.63;;;;;;;;;;5075392;28;20044;-57
2022/03/26 00:36:36;;;;;;;8.05;7.35;;;;;;;;;;5074886;28;20040;-56
2022/03/26 00:39:03;;;;;;;6.97;6.35;;;;;;;;;;5073702;28;20365;-55
2022/03/26 00:41:28;;;;;;;7.00;6.40;;;;;;;;;;5073869;28;20036;-56
2022/03/26 00:43:55;;;;;;;7.85;7.05;;;;;;;;;;5071400;28;20037;-56
2022/03/26 00:46:21;;;;;;;5.90;5.30;;;;;;;;;;5074785;28;20032;-57
2022/03/26 00:48:47;;;;;;;8.00;7.03;;;;;;;;;;5076115;28;20028;-57
2022/03/26 00:51:15;;;;;;;8.93;6.30;;;;;;;;;;5075024;28;20029;-55
2022/03/26 00:53:44;;;;;;;6.93;6.25;;;;;;;;;;5076072;28;20046;-54
2022/03/26 00:56:11;;;;;;;6.80;6.20;;;;;;;;;;5071121;28;20035;-56
2022/03/26 00:58:36;;;;;;;7.18;6.00;;;;;;;;;;5078682;28;20024;-56
2022/03/26 01:01:02;;;;;;;6.93;6.22;;;;;;;;;;5074599;28;20060;-57
2022/03/26 01:03:27;;;;;;;9.45;8.15;;;;;;;;;;5074977;28;20021;-56
2022/03/26 01:05:53;;;;;;;9.10;8.30;;;;;;;;;;5073569;28;20024;-54
2022/03/26 01:08:18;;;;;;;5.75;5.25;;;;;;;;;;5074025;28;20533;-56
2022/03/26 01:10:44;;;;;;;6.63;6.00;;;;;;;;;;5073711;28;20031;-57
2022/03/26 01:13:10;;;;;;;7.05;6.30;;;;;;;;;;5075417;28;20081;-55
2022/03/26 01:15:36;;;;;;;7.07;6.07;;;;;;;;;;5073283;28;20144;-54
2022/03/26 01:18:01;;;;;;;6.53;5.95;;;;;;;;;;5078215;28;20107;-55
2022/03/26 01:20:27;;;;;;;6.30;5.70;;;;;;;;;;5074847;28;20036;-55
2022/03/26 01:22:52;;;;;;;14.05;6.38;;;;;;;;;;5074358;28;20020;-56
2022/03/26 01:25:18;;;;;;;6.95;6.28;;;;;;;;;;5074703;28;20625;-55
2022/03/26 01:27:43;;;;;;;6.85;5.43;;;;;;;;;;5077808;28;20424;-56
2022/03/26 01:30:09;;;;;;;6.00;5.10;;;;;;;;;;5074551;28;20085;-55
2022/03/26 01:32:34;;;;;;;7.82;6.55;;;;;;;;;;5072101;28;20116;-56
2022/03/26 01:35:00;;;;;;;6.72;6.13;;;;;;;;;;5071576;28;20028;-56
2022/03/26 01:37:25;;;;;;;6.30;5.53;;;;;;;;;;5072457;28;20358;-56
2022/03/26 01:39:51;;;;;;;7.07;6.28;;;;;;;;;;5069492;28;20032;-54
2022/03/26 01:42:17;;;;;;;6.35;5.75;;;;;;;;;;5071760;28;20036;-55
2022/03/26 01:44:43;;;;;;;5.78;5.28;;;;;;;;;;5070063;28;20035;-55
2022/03/26 01:47:09;;;;;;;14.98;6.13;;;;;;;;;;5071629;28;20040;-56
2022/03/26 01:49:34;;;;;;;7.07;6.38;;;;;;;;;;5072170;28;20032;-57
2022/03/26 01:52:02;;;;;;;10.02;6.40;;;;;;;;;;5071686;28;20047;-56
2022/03/26 01:54:28;;;;;;;10.02;5.95;;;;;;;;;;5072028;28;20020;-55
2022/03/26 01:56:55;;;;;;;6.28;5.68;;;;;;;;;;5071731;28;20032;-56
2022/03/26 01:59:23;;;;;;;5.72;5.15;;;;;;;;;;5074506;28;20039;-57
2022/03/26 02:01:48;;;;;;;5.40;5.00;;;;;;;;;;5067837;28;20516;-57
2022/03/26 02:04:13;;;;;;;6.22;5.50;;;;;;;;;;5069938;28;20119;-56
2022/03/26 02:06:40;;;;;;;6.57;5.65;;;;;;;;;;5071217;28;20063;-55
2022/03/26 02:09:10;;;;;;;6.68;5.95;;;;;;;;;;5069286;28;20040;-56
2022/03/26 02:11:37;;;;;;;6.57;5.38;;;;;;;;;;5071982;28;20012;-55
2022/03/26 02:14:03;;;;;;;5.88;5.30;;;;;;;;;;5072021;28;20115;-55
2022/03/26 02:16:32;;;;;;;6.13;5.07;;;;;;;;;;5075606;28;20107;-55
2022/03/26 02:18:59;;;;;;;6.13;5.53;;;;;;;;;;5072323;28;20028;-55
2022/03/26 02:21:25;;;;;;;5.50;5.05;;;;;;;;;;5070336;28;20512;-54
2022/03/26 02:23:52;;;;;;;6.57;5.93;;;;;;;;;;5071959;28;20042;-55
2022/03/26 02:26:20;;;;;;;6.70;6.10;;;;;;;;;;5072257;28;20044;-55
2022/03/26 02:28:46;;;;;;;8.00;6.38;;;;;;;;;;5075198;28;20065;-55
2022/03/26 02:31:12;;;;;;;5.85;5.28;;;;;;;;;;5074657;28;20115;-56
2022/03/26 02:33:38;;;;;;;6.30;5.57;;;;;;;;;;5073187;28;20541;-56
2022/03/26 02:36:04;;;;;;;6.78;5.75;;;;;;;;;;5071462;28;20054;-57
2022/03/26 02:38:30;;;;;;;9.43;7.57;;;;;;;;;;5076877;28;20116;-55
2022/03/26 02:40:55;;;;;;;5.15;4.65;;;;;;;;;;5074493;28;20551;-55
2022/03/26 02:43:21;;;;;;;7.03;6.32;;;;;;;;;;5075075;28;20035;-57
2022/03/26 02:45:47;;;;;;;7.18;5.68;;;;;;;;;;5070006;28;20101;-57
2022/03/26 02:48:13;;;;;;;5.72;4.82;;;;;;;;;;5072815;28;20062;-56
2022/03/26 02:50:43;;;;;;;6.20;5.40;;;;;;;;;;5073980;28;20484;-57
2022/03/26 02:53:09;;;;;;;7.40;6.60;;;;;;;;;;5068750;28;20378;-56
2022/03/26 02:55:34;;;;;;;8.52;6.30;;;;;;;;;;5070970;28;20036;-61
2022/03/26 02:58:00;;;;;;;5.90;5.40;;;;;;;;;;5069876;28;20043;-56
2022/03/26 03:00:26;;;;;;;5.43;4.72;;;;;;;;;;5069924;28;20117;-55
2022/03/26 03:02:52;;;;;;;5.82;5.32;;;;;;;;;;5074091;28;20117;-57
2022/03/26 03:05:18;;;;;;;5.30;4.90;;;;;;;;;;5072425;28;20438;-57
2022/03/26 03:07:43;;;;;;;12.57;6.70;;;;;;;;;;5074834;28;20027;-56
2022/03/26 03:10:09;;;;;;;6.75;6.03;;;;;;;;;;5074326;28;20036;-56
2022/03/26 03:12:34;;;;;;;6.47;4.88;;;;;;;;;;5075798;28;20053;-56
2022/03/26 03:14:59;;;;;;;5.43;4.93;;;;;;;;;;5074634;28;20405;-56
2022/03/26 03:17:25;;;;;;;5.47;4.97;;;;;;;;;;5073260;28;20090;-57
2022/03/26 03:19:50;;;;;;;9.15;6.70;;;;;;;;;;5073477;28;20044;-57
2022/03/26 03:22:16;;;;;;;5.63;5.03;;;;;;;;;;5074125;28;20054;-56
2022/03/26 03:24:42;;;;;;;5.90;5.38;;;;;;;;;;5075208;28;20012;-56
2022/03/26 03:27:07;;;;;;;6.18;5.45;;;;;;;;;;5076131;28;20033;-56
2022/03/26 03:29:33;;;;;;;9.63;6.68;;;;;;;;;;5071496;28;20024;-55
2022/03/26 03:31:58;;;;;;;15.60;5.38;;;;;;;;;;5074429;28;20029;-55
2022/03/26 03:34:24;;;;;;;6.60;5.38;;;;;;;;;;5074047;28;20028;-56
2022/03/26 03:36:49;;;;;;;8.15;7.20;;;;;;;;;;5070934;28;20028;-56
2022/03/26 03:39:14;;;;;;;9.23;6.22;;;;;;;;;;5071907;28;20137;-56
2022/03/26 03:41:40;;;;;;;5.40;4.63;;;;;;;;;;5071651;28;20453;-55
2022/03/26 03:44:06;;;;;;;8.38;6.00;;;;;;;;;;5072881;28;20170;-55
2022/03/26 03:46:33;;;;;;;4.88;4.25;;;;;;;;;;5071717;28;20133;-56
2022/03/26 03:48:59;;;;;;;5.05;4.55;;;;;;;;;;5073247;28;20034;-55
2022/03/26 03:51:24;;;;;;;7.35;5.10;;;;;;;;;;5072422;28;20450;-55
2022/03/26 03:53:50;;;;;;;5.32;4.82;;;;;;;;;;5068607;28;20043;-55
2022/03/26 03:56:15;;;;;;;6.35;5.75;;;;;;;;;;5068888;28;20186;-56
2022/03/26 03:58:40;;;;;;;7.55;5.40;;;;;;;;;;5073240;28;20024;-56
2022/03/26 04:01:06;;;;;;;5.75;5.00;;;;;;;;;;5073436;28;20583;-57
2022/03/26 04:03:31;;;;;;;6.40;5.68;;;;;;;;;;5078593;28;20030;-53
2022/03/26 04:05:58;;;;;;;7.13;5.80;;;;;;;;;;5075353;28;20059;-56
2022/03/26 04:08:24;;;;;;;6.45;5.53;;;;;;;;;;5073507;28;20036;-56
2022/03/26 04:10:49;;;;;;;10.40;6.45;;;;;;;;;;5072066;28;20043;-56
2022/03/26 04:13:15;;;;;;;7.13;6.43;;;;;;;;;;5076225;28;20023;-56
2022/03/26 04:15:40;;;;;;;5.93;5.40;;;;;;;;;;5073167;28;20032;-56
2022/03/26 04:18:06;;;;;;;7.63;5.25;;;;;;;;;;5078178;28;20024;-56
2022/03/26 04:20:33;;;;;;;5.97;5.30;;;;;;;;;;5074836;28;20124;-56
2022/03/26 04:22:58;;;;;;;7.50;5.85;;;;;;;;;;5072794;28;20178;-56
2022/03/26 04:25:24;;;;;;;4.97;4.57;;;;;;;;;;5075376;28;20115;-55
2022/03/26 04:27:49;;;;;;;4.88;4.47;;;;;;;;;;5075286;28;20101;-55
2022/03/26 04:30:15;;;;;;;5.60;5.10;;;;;;;;;;5073854;28;20062;-58
2022/03/26 04:32:41;;;;;;;6.55;4.97;;;;;;;;;;5075370;28;20374;-52
2022/03/26 04:35:07;;;;;;;6.45;5.25;;;;;;;;;;5076711;28;20771;-54
2022/03/26 04:37:35;;;;;;;5.38;4.88;;;;;;;;;;5074390;28;20029;-56
2022/03/26 04:40:03;;;;;;;9.68;5.82;;;;;;;;;;5073696;28;20029;-55
2022/03/26 04:42:28;;;;;;;8.13;6.45;;;;;;;;;;5074174;28;20069;-56
2022/03/26 04:44:54;;;;;;;4.97;4.47;;;;;;;;;;5075231;28;20500;-56
2022/03/26 04:47:19;;;;;;;6.65;5.53;;;;;;;;;;5070624;28;20028;-53
2022/03/26 04:49:44;;;;;;;5.50;5.00;;;;;;;;;;5076061;28;20317;-55
2022/03/26 04:52:10;;;;;;;6.28;5.65;;;;;;;;;;5072096;28;20024;-53
2022/03/26 04:54:35;;;;;;;5.03;4.63;;;;;;;;;;5074610;28;20070;-56
2022/03/26 04:57:00;;;;;;;6.45;5.50;;;;;;;;;;5073609;28;20347;-56
2022/03/26 04:59:26;;;;;;;7.53;6.13;;;;;;;;;;5070955;28;20088;-55
2022/03/26 05:01:51;;;;;;;6.20;4.75;;;;;;;;;;5074374;28;20036;-55
2022/03/26 05:04:17;;;;;;;5.40;4.82;;;;;;;;;;5075534;28;20123;-54
2022/03/26 05:06:43;;;;;;;6.80;5.07;;;;;;;;;;5073250;28;20021;-55
2022/03/26 05:09:09;;;;;;;10.32;6.70;;;;;;;;;;5070601;28;20032;-54
2022/03/26 05:11:34;;;;;;;10.32;5.28;;;;;;;;;;5072330;28;20270;-55
2022/03/26 05:13:59;;;;;;;6.28;4.93;;;;;;;;;;5074111;28;20064;-50
2022/03/26 05:16:25;;;;;;;4.88;4.47;;;;;;;;;;5075191;28;20062;-52
2022/03/26 05:18:50;;;;;;;5.80;5.25;;;;;;;;;;5074459;28;20090;-52
2022/03/26 05:21:16;;;;;;;8.35;5.25;;;;;;;;;;5072326;28;20024;-56
2022/03/26 05:23:41;;;;;;;6.50;5.75;;;;;;;;;;5074167;28;20023;-52
2022/03/26 05:26:07;;;;;;;5.68;5.10;;;;;;;;;;5073028;28;20370;-56
2022/03/26 05:28:32;;;;;;;6.90;6.30;;;;;;;;;;5077106;28;20031;-55
2022/03/26 05:30:58;;;;;;;8.88;4.93;;;;;;;;;;5071302;28;20071;-56
2022/03/26 05:33:23;;;;;;;4.32;3.92;;;;;;;;;;5073536;28;20024;-53
2022/03/26 05:35:49;;;;;;;5.13;4.63;;;;;;;;;;5077276;28;20039;-55
2022/03/26 05:38:14;;;;;;;6.13;5.03;;;;;;;;;;5071263;28;20599;-53
2022/03/26 05:40:40;;;;;;;5.00;4.47;;;;;;;;;;5076963;28;20086;-56
2022/03/26 05:43:06;;;;;;;7.30;4.88;;;;;;;;;;5074846;28;20060;-56
2022/03/26 05:45:32;;;;;;;5.93;5.30;;;;;;;;;;5071503;28;20084;-53
2022/03/26 05:48:02;;;;;;;6.82;5.65;;;;;;;;;;5071177;28;20050;-55
2022/03/26 05:50:29;;;;;;;11.43;5.97;;;;;;;;;;5069362;28;20032;-54
2022/03/26 05:52:55;;;;;;;7.13;6.43;;;;;;;;;;5069932;28;20031;-52
2022/03/26 05:55:20;;;;;;;7.03;5.35;;;;;;;;;;5071821;28;20036;-54
2022/03/26 05:57:46;;;;;;;8.63;6.97;;;;;;;;;;5071106;28;20422;-55
2022/03/26 06:00:12;;;;;;;5.20;4.70;;;;;;;;;;5075520;28;20568;-54
2022/03/26 06:02:37;;;;;;;5.65;5.15;;;;;;;;;;5073597;28;20032;-55
2022/03/26 06:05:05;;;;;;;6.82;5.93;;;;;;;;;;5076368;28;20151;-51
2022/03/26 06:07:31;;;;;;;7.30;6.38;;;;;;;;;;5076837;28;20024;-53
2022/03/26 06:09:57;;;;;;;8.60;6.13;;;;;;;;;;5067421;28;20059;-51
2022/03/26 06:12:22;;;;;;;7.07;6.07;;;;;;;;;;5067849;28;20016;-53
2022/03/26 06:14:48;;;;;;;6.00;5.45;;;;;;;;;;5071390;28;20038;-52
2022/03/26 06:17:14;;;;;;;6.70;5.63;;;;;;;;;;5074089;28;20052;-53
2022/03/26 06:19:43;;;;;;;5.88;4.88;;;;;;;;;;5071896;28;20032;-54
2022/03/26 06:22:09;;;;;;;10.20;5.32;;;;;;;;;;5070100;28;20089;-53
2022/03/26 06:24:34;;;;;;;6.05;5.32;;;;;;;;;;5069619;28;20021;-53
2022/03/26 06:27:01;;;;;;;4.85;4.35;;;;;;;;;;5069162;28;20662;-53
2022/03/26 06:29:27;;;;;;;7.82;6.47;;;;;;;;;;5071425;28;20043;-54
2022/03/26 06:31:52;;;;;;;6.95;6.25;;;;;;;;;;5069116;28;20020;-53
2022/03/26 06:34:18;;;;;;;6.50;5.90;;;;;;;;;;5068881;28;20028;-56
2022/03/26 06:36:43;;;;;;;7.72;7.00;;;;;;;;;;5069361;28;20139;-55
2022/03/26 06:39:09;;;;;;;8.02;6.03;;;;;;;;;;5072681;28;20405;-54
2022/03/26 06:41:44;;;;;;;5.72;5.15;;;;;;;;;;5068876;28;20032;-56
2022/03/26 06:44:10;;;;;;;5.25;4.75;;;;;;;;;;5065675;28;20499;-54
2022/03/26 06:46:37;;;;;;;7.63;6.00;;;;;;;;;;5062055;28;20040;-52
2022/03/26 06:49:03;;;;;;;7.10;6.32;;;;;;;;;;5066857;28;20032;-52
2022/03/26 06:51:29;;;;;;;6.75;6.07;;;;;;;;;;5068692;28;20100;-53
2022/03/26 06:53:54;;;;;;;7.75;5.30;;;;;;;;;;5068069;28;20044;-54
2022/03/26 06:56:19;;;;;;;6.72;5.63;;;;;;;;;;5069036;28;20049;-57
2022/03/26 06:58:45;;;;;;;6.55;5.65;;;;;;;;;;5071080;28;20024;-54
2022/03/26 07:01:11;;;;;;;6.00;5.40;;;;;;;;;;5070064;28;20616;-56
2022/03/26 07:03:36;;;;;;;6.25;5.63;;;;;;;;;;5072368;28;20619;-56
2022/03/26 07:06:03;;;;;;;6.45;5.85;;;;;;;;;;5068886;28;20111;-55
2022/03/26 07:08:28;;;;;;;6.10;5.43;;;;;;;;;;5068040;28;20024;-55
2022/03/26 07:10:54;;;;;;;17.30;6.88;;;;;;;;;;5073321;28;20024;-56
2022/03/26 07:13:19;;;;;;;7.30;6.03;;;;;;;;;;5073890;28;20028;-54
2022/03/26 07:15:44;;;;;;;8.98;7.18;;;;;;;;;;5072248;28;20032;-56
2022/03/26 07:18:11;;;;;;;6.28;5.70;;;;;;;;;;5070599;28;20035;-57
2022/03/26 07:20:38;;;;;;;6.93;6.32;;;;;;;;;;5068193;28;20020;-56
2022/03/26 07:23:03;;;;;;;7.55;6.80;;;;;;;;;;5070054;28;20315;-56
2022/03/26 07:25:29;;;;;;;7.75;7.05;;;;;;;;;;5069117;28;20039;-57
2022/03/26 07:27:54;;;;;;;6.70;6.10;;;;;;;;;;5071322;28;20033;-56
2022/03/26 07:30:20;;;;;;;8.35;7.05;;;;;;;;;;5069893;28;20071;-56
2022/03/26 07:32:45;;;;;;;7.60;6.88;;;;;;;;;;5073438;28;20115;-53
2022/03/26 07:35:11;;;;;;;6.20;5.70;;;;;;;;;;5074481;28;20067;-54
2022/03/26 07:37:36;;;;;;;8.77;7.43;;;;;;;;;;5073763;28;20131;-53
2022/03/26 07:40:02;;;;;;;8.38;6.35;;;;;;;;;;5073329;28;20373;-54
2022/03/26 07:42:28;;;;;;;8.00;6.93;;;;;;;;;;5074071;28;20024;-55
2022/03/26 07:44:53;;;;;;;15.02;7.63;;;;;;;;;;5073423;28;20047;-54
2022/03/26 07:47:19;;;;;;;8.45;7.40;;;;;;;;;;5074242;28;20032;-56
2022/03/26 07:49:45;;;;;;;6.57;5.93;;;;;;;;;;5081166;28;20028;-55
2022/03/26 07:52:10;;;;;;;11.90;6.95;;;;;;;;;;5073800;28;20601;-56
2022/03/26 07:54:35;;;;;;;7.47;6.75;;;;;;;;;;5076089;28;20043;-55
2022/03/26 07:57:01;;;;;;;8.98;6.72;;;;;;;;;;5073511;28;20140;-56
2022/03/26 07:59:26;;;;;;;8.82;7.93;;;;;;;;;;5075088;28;20035;-55
2022/03/26 08:01:52;;;;;;;8.15;7.35;;;;;;;;;;5070356;28;20570;-54
2022/03/26 08:04:17;;;;;;;8.88;7.28;;;;;;;;;;5074402;28;20023;-53
2022/03/26 08:06:42;;;;;;;7.70;6.57;;;;;;;;;;5074419;28;20033;-56
2022/03/26 08:09:08;;;;;;;7.40;5.90;;;;;;;;;;5073724;28;20143;-54
2022/03/26 08:11:33;;;;;;;7.68;6.97;;;;;;;;;;5078507;28;20056;-52
2022/03/26 08:13:59;;;;;;;8.50;7.30;;;;;;;;;;5074894;28;20157;-56
2022/03/26 08:16:24;;;;;;;8.32;7.53;;;;;;;;;;5072372;28;20636;-56
2022/03/26 08:18:49;;;;;;;11.07;7.28;;;;;;;;;;5073903;28;20425;-54
2022/03/26 08:21:15;;;;;;;8.80;7.90;;;;;;;;;;5072350;28;20043;-56
2022/03/26 08:23:41;;;;;;;10.70;7.82;;;;;;;;;;5070482;28;20035;-57
2022/03/26 08:26:26;;;;;;;10.32;8.60;;;;;;;;;;5072345;28;20431;-56
2022/03/26 08:28:54;;;;;;;8.13;7.43;;;;;;;;;;5073636;28;20032;-56
2022/03/26 08:31:21;;;;;;;7.85;6.93;;;;;;;;;;5070069;28;20505;-54
2022/03/26 08:33:47;;;;;;;15.23;7.40;;;;;;;;;;5074016;28;20032;-55
2022/03/26 08:36:14;;;;;;;11.18;9.82;;;;;;;;;;5070616;28;20494;-56
2022/03/26 08:38:40;;;;;;;10.80;9.82;;;;;;;;;;5074208;28;20039;-56
2022/03/26 08:41:05;;;;;;;10.07;9.20;;;;;;;;;;5058594;28;20037;-56
2022/03/26 08:43:31;;;;;;;9.55;8.43;;;;;;;;;;5074121;28;20024;-55
2022/03/26 08:45:57;;;;;;;10.32;7.28;;;;;;;;;;5073593;28;20109;-55
2022/03/26 08:48:22;;;;;;;9.95;8.48;;;;;;;;;;5077658;28;20612;-56
2022/03/26 08:50:48;;;;;;;11.88;10.25;;;;;;;;;;5070316;28;20042;-54
2022/03/26 08:53:14;;;;;;;9.57;8.65;;;;;;;;;;5075960;28;20047;-54
2022/03/26 08:55:39;;;;;;;9.93;8.70;;;;;;;;;;5071938;28;20032;-55
2022/03/26 08:58:07;;;;;;;16.95;8.98;;;;;;;;;;5077102;28;20603;-55
2022/03/26 09:00:34;;;;;;;9.90;8.85;;;;;;;;;;5070998;28;20032;-56
2022/03/26 09:03:00;;;;;;;15.18;11.25;;;;;;;;;;5073284;28;20036;-54
2022/03/26 09:05:25;;;;;;;13.10;9.85;;;;;;;;;;5071937;28;20038;-55
2022/03/26 09:07:51;;;;;;;9.15;8.13;;;;;;;;;;5074144;28;20119;-55
2022/03/26 09:10:16;;;;;;;10.18;9.07;;;;;;;;;;5074418;28;20123;-55
2022/03/26 09:12:42;;;;;;;10.00;9.20;;;;;;;;;;5071933;28;20028;-54
2022/03/26 09:15:08;;;;;;;9.40;8.43;;;;;;;;;;5071841;28;20028;-54
2022/03/26 09:17:34;;;;;;;16.25;10.90;;;;;;;;;;5075866;28;20111;-56
2022/03/26 09:19:59;;;;;;;9.85;8.95;;;;;;;;;;5074041;28;20590;-55
2022/03/26 09:22:25;;;;;;;11.27;10.27;;;;;;;;;;5074383;28;20108;-57
2022/03/26 09:24:51;;;;;;;9.98;9.13;;;;;;;;;;5071148;28;20458;-57
2022/03/26 09:27:17;;;;;;;11.40;10.38;;;;;;;;;;5075847;28;20038;-57
2022/03/26 09:29:45;;;;;;;14.13;11.23;;;;;;;;;;5071194;28;20020;-56
2022/03/26 09:32:10;;;;;;;10.00;8.73;;;;;;;;;;5070208;28;20040;-56
2022/03/26 09:34:36;;;;;;;8.55;7.85;;;;;;;;;;5076662;28;20104;-54
2022/03/26 09:37:02;;;;;;;10.57;9.70;;;;;;;;;;5073984;28;20040;-55
2022/03/26 09:39:27;;;;;;;10.90;9.50;;;;;;;;;;5073245;28;20032;-57
2022/03/26 09:41:53;;;;;;;9.30;8.50;;;;;;;;;;5072297;28;20158;-56
2022/03/26 09:44:20;;;;;;;11.23;10.13;;;;;;;;;;5075724;28;20017;-53
2022/03/26 09:46:45;;;;;;;10.23;9.00;;;;;;;;;;5072754;28;20111;-52
2022/03/26 09:49:10;;;;;;;9.35;8.55;;;;;;;;;;5071725;28;20513;-55
2022/03/26 09:51:36;;;;;;;14.00;9.98;;;;;;;;;;5075497;28;20523;-58
2022/03/26 09:54:03;;;;;;;12.32;10.23;;;;;;;;;;5073464;28;20032;-58
2022/03/26 09:56:28;;;;;;;8.95;8.15;;;;;;;;;;5073063;28;20479;-56
2022/03/26 09:58:54;;;;;;;10.40;9.40;;;;;;;;;;5070324;28;20029;-58
2022/03/26 10:01:22;;;;;;;10.07;9.10;;;;;;;;;;5071967;28;20475;-54
2022/03/26 10:04:35;;;;;;;18.90;10.48;;;;;;;;;;5071913;28;20085;-58
2022/03/26 10:07:00;;;;;;;8.38;7.68;;;;;;;;;;5010050;28;20052;-56
2022/03/26 10:09:40;;;;;;;9.98;9.05;;;;;;;;;;5010237;28;20025;-56
2022/03/26 10:12:15;;;;;;;9.48;8.52;;;;;;;;;;5039642;28;20040;-58
2022/03/26 10:14:59;;;;;;;9.02;8.20;;;;;;;;;;5073471;28;20032;-60
2022/03/26 10:17:32;;;;;;;12.98;10.45;;;;;;;;;;5074669;28;20049;-58
2022/03/26 10:19:58;;;;;;;11.23;9.60;;;;;;;;;;5071902;28;20028;-57
2022/03/26 10:22:36;;;;;;;8.75;7.88;;;;;;;;;;5072088;28;20035;-58
2022/03/26 10:25:07;;;;;;;10.23;9.27;;;;;;;;;;5073149;28;20115;-51
2022/03/26 10:27:42;;;;;;;9.95;9.07;;;;;;;;;;5071506;28;20020;-55
2022/03/26 10:30:09;;;;;;;10.68;9.50;;;;;;;;;;5070621;28;20032;-53
2022/03/26 10:32:39;;;;;;;10.68;9.43;;;;;;;;;;5070480;28;20552;-53
2022/03/26 10:35:17;;;;;;;23.02;10.02;;;;;;;;;;5073092;28;20036;-53
2022/03/26 10:37:49;;;;;;;11.15;10.20;;;;;;;;;;5069454;28;20032;-54
2022/03/26 10:40:26;;;;;;;10.30;9.20;;;;;;;;;;5069572;28;20032;-56
2022/03/26 10:43:14;;;;;;;11.68;10.57;;;;;;;;;;5075215;28;20036;-54
2022/03/26 10:45:51;;;;;;;10.73;8.88;;;;;;;;;;5071926;28;20054;-55
2022/03/26 10:48:46;;;;;;;12.35;11.10;;;;;;;;;;5073408;28;20028;-54
2022/03/26 10:51:15;;;;;;;9.48;8.68;;;;;;;;;;5060130;28;20033;-55
2022/03/26 10:53:46;;;;;;;10.80;9.80;;;;;;;;;;5072146;28;20039;-56
2022/03/26 10:56:13;;;;;;;11.68;10.50;;;;;;;;;;5070689;28;20237;-54
2022/03/26 10:58:40;;;;;;;11.90;10.90;;;;;;;;;;5071084;28;20396;-55
2022/03/26 11:01:06;;;;;;;23.10;11.70;;;;;;;;;;5071001;28;20052;-54
2022/03/26 11:03:34;;;;;;;11.05;10.00;;;;;;;;;;5071021;28;20166;-54
2022/03/26 11:06:00;;;;;;;13.82;12.63;;;;;;;;;;5068510;28;20519;-53
2022/03/26 11:08:30;;;;;;;12.73;11.77;;;;;;;;;;5070775;28;20101;-53
2022/03/26 11:10:56;;;;;;;10.00;9.27;;;;;;;;;;5069314;28;20024;-54
2022/03/26 11:13:23;;;;;;;12.25;11.27;;;;;;;;;;5070721;28;20025;-54
2022/03/26 11:15:52;;;;;;;12.13;10.18;;;;;;;;;;5068409;28;20043;-55
2022/03/26 11:18:36;;;;;;;14.13;12.90;;;;;;;;;;5071335;28;20094;-55
2022/03/26 11:21:31;;;;;;;14.88;13.77;;;;;;;;;;5074149;28;20194;-54
2022/03/26 11:24:55;;;;;;;13.45;12.40;;;;;;;;;;5069629;28;20151;-55
2022/03/26 11:27:46;;;;;;;13.55;12.45;;;;;;;;;;5043816;28;20074;-58
2022/03/26 11:30:19;;;;;;;11.57;10.57;;;;;;;;;;5063760;28;20109;-55
2022/03/26 11:32:45;;;;;;;13.25;12.13;;;;;;;;;;5075611;28;20381;-58
2022/03/26 11:35:14;;;;;;;11.70;10.60;;;;;;;;;;5068928;28;20028;-56
2022/03/26 11:37:54;;;;;;;12.82;11.55;;;;;;;;;;5071023;28;20036;-56
2022/03/26 11:40:53;;;;;;;10.20;9.45;;;;;;;;;;5056284;28;20078;-59
2022/03/26 11:43:50;;;;;;;13.18;12.18;;;;;;;;;;5073595;28;20029;-58
2022/03/26 11:52:16;;;;;;;11.35;10.55;;;;;;;;;;5071915;28;20696;-57
2022/03/26 11:54:42;;;;;;;11.77;10.88;;;;;;;;;;5071332;28;20181;-57
2022/03/26 11:57:24;;;;;;;11.60;9.63;;;;;;;;;;5069674;28;20068;-56
2022/03/26 11:59:52;;;;;;;9.90;9.00;;;;;;;;;;5069598;28;20051;-55
2022/03/26 12:02:18;;;;;;;12.18;10.98;;;;;;;;;;5067923;28;20032;-55
2022/03/26 12:04:49;;;;;;;11.75;10.77;;;;;;;;;;5068614;28;20051;-56
2022/03/26 12:07:17;;;;;;;10.77;9.77;;;;;;;;;;5069739;28;20020;-56
2022/03/26 12:09:44;;;;;;;9.88;9.13;;;;;;;;;;5071353;28;20319;-54
2022/03/26 12:12:13;;;;;;;9.93;9.13;;;;;;;;;;5067796;28;20039;-56
2022/03/26 12:15:08;;;;;;;11.70;10.90;;;;;;;;;;5069909;28;20637;-55
2022/03/26 12:17:44;;;;;;;9.55;8.85;;;;;;;;;;5071477;28;20056;-56
2022/03/26 12:20:20;;;;;;;11.45;10.60;;;;;;;;;;5056489;28;20028;-56
2022/03/26 12:22:49;;;;;;;9.80;9.10;;;;;;;;;;5069931;28;20024;-56
2022/03/26 12:25:16;;;;;;;11.20;10.18;;;;;;;;;;5072134;28;20117;-56
2022/03/26 12:27:43;;;;;;;10.98;10.07;;;;;;;;;;5071677;28;20063;-57
2022/03/26 12:30:10;;;;;;;12.65;10.02;;;;;;;;;;5072597;28;20036;-55
2022/03/26 12:32:36;;;;;;;11.40;10.60;;;;;;;;;;5071098;28;20091;-56
2022/03/26 12:35:06;;;;;;;9.80;9.07;;;;;;;;;;5074174;28;20523;-56
2022/03/26 12:37:33;;;;;;;10.40;9.68;;;;;;;;;;5072766;28;20037;-55
2022/03/26 12:39:59;;;;;;;13.60;12.68;;;;;;;;;;5072898;28;20205;-55
2022/03/26 12:42:25;;;;;;;11.10;10.20;;;;;;;;;;5075006;28;20497;-56
2022/03/26 12:44:52;;;;;;;11.32;10.10;;;;;;;;;;5071997;28;20059;-55
2022/03/26 12:47:21;;;;;;;11.23;9.20;;;;;;;;;;5071806;28;20024;-55
2022/03/26 12:49:50;;;;;;;12.40;11.43;;;;;;;;;;5072471;28;20035;-56
2022/03/26 12:52:19;;;;;;;14.68;13.15;;;;;;;;;;5075569;28;20089;-57
2022/03/26 12:54:52;;;;;;;14.27;12.95;;;;;;;;;;5069909;28;20100;-55
2022/03/26 12:57:18;;;;;;;11.93;11.15;;;;;;;;;;5076272;28;20106;-56
2022/03/26 12:59:54;;;;;;;12.00;11.18;;;;;;;;;;5073723;28;20083;-56
2022/03/26 13:02:20;;;;;;;12.63;11.73;;;;;;;;;;5071367;28;20485;-57
2022/03/26 13:04:53;;;;;;;13.85;12.95;;;;;;;;;;5076656;28;20172;-57
2022/03/26 13:07:19;;;;;;;12.90;12.10;;;;;;;;;;5075649;28;20032;-57
2022/03/26 13:09:44;;;;;;;12.65;11.68;;;;;;;;;;5076452;28;20040;-58
2022/03/26 13:12:26;;;;;;;12.40;11.50;;;;;;;;;;5073406;28;20034;-56
2022/03/26 13:14:51;;;;;;;12.80;12.00;;;;;;;;;;5071851;28;20116;-55
2022/03/26 13:17:19;;;;;;;12.55;11.75;;;;;;;;;;5071426;28;20465;-59
2022/03/26 13:19:45;;;;;;;15.48;13.98;;;;;;;;;;5075766;28;20036;-57
2022/03/26 13:22:14;;;;;;;13.23;11.45;;;;;;;;;;5074233;28;20036;-56
2022/03/26 13:24:52;;;;;;;11.40;10.57;;;;;;;;;;5071894;28;20052;-55
2022/03/26 13:27:19;;;;;;;12.68;11.68;;;;;;;;;;5070785;28;20161;-54
2022/03/26 13:29:45;;;;;;;11.48;10.68;;;;;;;;;;5073384;28;20036;-52
2022/03/26 13:32:10;;;;;;;15.35;14.35;;;;;;;;;;5071710;28;20021;-55
2022/03/26 13:34:39;;;;;;;19.13;17.83;;;;;;;;;;5074559;28;20031;-55
2022/03/26 13:37:12;;;;;;;14.65;13.75;;;;;;;;;;5071010;28;20044;-54
2022/03/26 13:39:39;;;;;;;15.65;14.63;;;;;;;;;;5070848;28;20040;-54
2022/03/26 13:42:10;;;;;;;16.95;14.73;;;;;;;;;;5070717;28;20465;-55
2022/03/26 13:44:36;;;;;;;14.48;13.48;;;;;;;;;;5071611;28;20060;-52
2022/03/26 13:47:02;;;;;;;14.50;13.55;;;;;;;;;;5073052;28;20094;-54
2022/03/26 13:49:32;;;;;;;14.40;13.50;;;;;;;;;;5069088;28;20032;-53
2022/03/26 13:52:07;;;;;;;15.82;14.82;;;;;;;;;;5072613;28;20054;-54
2022/03/26 13:54:35;;;;;;;16.77;15.70;;;;;;;;;;5071309;28;20032;-54
2022/03/26 13:57:04;;;;;;;13.57;12.65;;;;;;;;;;5067390;28;20036;-54
2022/03/26 13:59:36;;;;;;;17.75;16.65;;;;;;;;;;5070409;28;20651;-54
2022/03/26 14:02:02;;;;;;;14.50;13.60;;;;;;;;;;5067350;28;20046;-54
2022/03/26 14:04:28;;;;;;;13.60;12.75;;;;;;;;;;5071696;28;20028;-55
2022/03/26 14:06:54;;;;;;;14.40;13.50;;;;;;;;;;5069961;28;20112;-56
2022/03/26 14:09:24;;;;;;;16.35;15.05;;;;;;;;;;5069434;28;20067;-57
2022/03/26 14:11:50;;;;;;;16.93;15.30;;;;;;;;;;5071121;28;20137;-58
2022/03/26 14:14:15;;;;;;;14.60;13.70;;;;;;;;;;5071645;28;20767;-57
2022/03/26 14:16:41;;;;;;;16.23;15.23;;;;;;;;;;5072506;28;20107;-57
2022/03/26 14:19:06;;;;;;;16.50;15.38;;;;;;;;;;5070228;28;20831;-58
2022/03/26 14:21:32;;;;;;;15.00;14.05;;;;;;;;;;5072811;28;20032;-58
2022/03/26 14:23:57;;;;;;;16.85;15.75;;;;;;;;;;5070611;28;20040;-58
2022/03/26 14:26:22;;;;;;;17.65;16.55;;;;;;;;;;5070545;28;20375;-58
2022/03/26 14:28:48;;;;;;;18.20;16.80;;;;;;;;;;5071082;28;20414;-57
2022/03/26 14:31:13;;;;;;;17.88;16.77;;;;;;;;;;5069049;28;20032;-57
2022/03/26 14:33:39;;;;;;;18.30;17.13;;;;;;;;;;5070795;28;20343;-58
2022/03/26 14:36:05;;;;;;;13.77;12.88;;;;;;;;;;5068899;28;20024;-57
2022/03/26 14:38:30;;;;;;;14.25;13.25;;;;;;;;;;5072018;28;20620;-57
2022/03/26 14:40:56;;;;;;;15.50;14.52;;;;;;;;;;5068553;28;20063;-57